Time,TemperatureF,DewpointF,PressureIn,WindDirection,WindDirectionDegrees,WindSpeedMPH,WindSpeedGustMPH,Humidity,HourlyPrecipIn,Conditions,Clouds,dailyrainin,SoftwareType,DateUTC
2013-07-14 00:03:00,72.5,72.0,30.22,SSE,158,0.0,0.0,98,0.00,,,0.54,meteohub,2013-07-14 04:03:00,
2013-07-14 00:08:00,72.3,71.8,30.22,SE,135,0.0,0.0,98,0.00,,,0.00,meteohub,2013-07-14 04:08:00,
2013-07-14 00:13:00,72.5,72.0,30.22,ENE,68,0.0,3.0,98,0.00,,,0.00,meteohub,2013-07-14 04:13:00,
2013-07-14 00:18:00,72.5,72.0,30.22,NNE,22,0.0,3.0,98,0.00,,,0.00,meteohub,2013-07-14 04:18:00,
2013-07-14 00:23:00,72.3,71.8,30.22,SSE,158,0.0,3.0,98,0.00,,,0.00,meteohub,2013-07-14 04:23:00,
2013-07-14 00:28:00,72.3,71.8,30.22,ESE,112,0.0,3.0,98,0.00,,,0.00,meteohub,2013-07-14 04:28:00,
2013-07-14 00:33:00,72.3,71.8,30.22,ENE,68,0.0,0.0,98,0.00,,,0.00,meteohub,2013-07-14 04:33:00,
2013-07-14 00:38:00,72.3,71.8,30.22,SE,135,0.0,3.0,98,0.00,,,0.00,meteohub,2013-07-14 04:38:00,
2013-07-14 00:43:00,72.3,71.8,30.22,WSW,248,0.0,3.0,98,0.00,,,0.00,meteohub,2013-07-14 04:43:00,
2013-07-14 00:48:00,72.3,71.8,30.22,SE,135,0.0,4.0,98,0.00,,,0.00,meteohub,2013-07-14 04:48:00,
2013-07-14 00:53:00,72.1,71.6,30.22,ESE,112,3.0,4.0,98,0.00,,,0.00,meteohub,2013-07-14 04:53:00,
2013-07-14 00:58:00,72.1,71.6,30.22,WSW,248,0.0,4.0,98,0.00,,,0.00,meteohub,2013-07-14 04:58:00,
2013-07-14 01:03:00,72.0,71.4,30.22,SSW,202,0.0,3.0,98,0.00,,,0.00,meteohub,2013-07-14 05:03:00,
2013-07-14 01:08:00,72.0,71.4,30.22,NNW,338,0.0,3.0,98,0.00,,,0.00,meteohub,2013-07-14 05:08:00,
2013-07-14 01:13:00,72.0,71.4,30.22,SE,135,0.0,3.0,98,0.00,,,0.00,meteohub,2013-07-14 05:13:00,
2013-07-14 01:18:00,71.8,71.2,30.22,SE,135,0.0,3.0,98,0.00,,,0.00,meteohub,2013-07-14 05:18:00,
2013-07-14 01:23:00,71.8,71.2,30.22,SE,135,0.0,3.0,98,0.00,,,0.00,meteohub,2013-07-14 05:23:00,
2013-07-14 01:33:00,71.6,71.1,30.22,SE,135,0.0,2.0,98,0.00,,,0.00,meteohub,2013-07-14 05:33:00,
2013-07-14 01:38:00,71.6,71.1,30.22,South,180,0.0,3.0,98,0.00,,,0.00,meteohub,2013-07-14 05:38:00,
2013-07-14 01:43:00,71.4,70.9,30.22,South,180,0.0,3.0,98,0.00,,,0.00,meteohub,2013-07-14 05:43:00,
2013-07-14 01:48:00,71.2,70.7,30.22,South,180,0.0,3.0,98,0.00,,,0.00,meteohub,2013-07-14 05:48:00,
2013-07-14 01:53:00,71.2,70.7,30.22,South,180,0.0,0.0,98,0.00,,,0.00,meteohub,2013-07-14 05:53:00,
2013-07-14 01:58:00,71.2,70.7,30.22,South,180,0.0,0.0,98,0.00,,,0.00,meteohub,2013-07-14 05:58:00,
2013-07-14 02:03:00,71.1,70.5,30.22,South,180,0.0,0.0,98,0.00,,,0.00,meteohub,2013-07-14 06:03:00,
2013-07-14 02:08:00,71.1,70.5,30.22,South,180,0.0,0.0,98,0.00,,,0.00,meteohub,2013-07-14 06:08:00,
2013-07-14 02:13:00,70.9,70.3,30.22,South,180,0.0,0.0,98,0.00,,,0.00,meteohub,2013-07-14 06:13:00,
2013-07-14 02:18:00,70.9,70.3,30.22,ESE,112,0.0,0.0,98,0.00,,,0.00,meteohub,2013-07-14 06:18:00,
2013-07-14 02:23:00,70.9,70.3,30.22,SE,135,0.0,0.0,98,0.00,,,0.00,meteohub,2013-07-14 06:23:00,
2013-07-14 02:28:00,70.9,70.3,30.22,ESE,112,0.0,0.0,98,0.00,,,0.00,meteohub,2013-07-14 06:28:00,
2013-07-14 02:33:00,71.1,70.5,30.22,NNW,338,0.0,0.0,98,0.00,,,0.00,meteohub,2013-07-14 06:33:00,
2013-07-14 02:38:00,71.1,70.5,30.22,NNW,338,0.0,0.0,98,0.00,,,0.00,meteohub,2013-07-14 06:38:00,
2013-07-14 02:43:00,71.1,70.5,30.25,NNW,338,0.0,0.0,98,0.00,,,0.00,meteohub,2013-07-14 06:43:00,
2013-07-14 02:48:00,71.2,70.7,30.25,NNE,22,0.0,0.0,98,0.00,,,0.00,meteohub,2013-07-14 06:48:00,
2013-07-14 02:53:00,71.2,70.7,30.25,SE,135,0.0,2.0,98,0.00,,,0.00,meteohub,2013-07-14 06:53:00,
2013-07-14 02:58:00,71.4,70.9,30.25,ESE,112,0.0,2.0,98,0.00,,,0.00,meteohub,2013-07-14 06:58:00,
2013-07-14 03:08:00,71.4,70.9,30.25,ENE,68,0.0,3.0,98,0.00,,,0.00,meteohub,2013-07-14 07:08:00,
2013-07-14 03:13:00,71.4,70.9,30.22,ESE,112,0.0,3.0,98,0.00,,,0.00,meteohub,2013-07-14 07:13:00,
2013-07-14 03:18:00,71.4,70.9,30.22,SSE,158,0.0,2.0,98,0.00,,,0.00,meteohub,2013-07-14 07:18:00,
2013-07-14 03:23:00,71.2,70.7,30.22,ESE,112,0.0,2.0,98,0.00,,,0.00,meteohub,2013-07-14 07:23:00,
2013-07-14 03:28:00,71.2,70.7,30.22,ESE,112,0.0,3.0,98,0.00,,,0.00,meteohub,2013-07-14 07:28:00,
2013-07-14 03:33:00,71.2,70.7,30.22,East,90,0.0,3.0,98,0.00,,,0.00,meteohub,2013-07-14 07:33:00,
2013-07-14 03:38:00,71.2,70.7,30.22,ESE,112,0.0,3.0,98,0.00,,,0.00,meteohub,2013-07-14 07:38:00,
2013-07-14 03:43:00,71.1,70.5,30.22,SE,135,0.0,0.0,98,0.00,,,0.00,meteohub,2013-07-14 07:43:00,
2013-07-14 03:53:00,71.1,70.5,30.22,NE,45,0.0,0.0,98,0.00,,,0.00,meteohub,2013-07-14 07:53:00,
2013-07-14 03:58:00,71.1,70.5,30.22,NE,45,0.0,0.0,98,0.00,,,0.00,meteohub,2013-07-14 07:58:00,
2013-07-14 04:03:00,70.9,70.3,30.22,NNE,22,0.0,0.0,98,0.00,,,0.00,meteohub,2013-07-14 08:03:00,
2013-07-14 04:08:00,70.9,70.3,30.22,South,180,0.0,3.0,98,0.00,,,0.00,meteohub,2013-07-14 08:08:00,
2013-07-14 04:13:00,70.9,70.3,30.22,ENE,68,0.0,3.0,98,0.00,,,0.00,meteohub,2013-07-14 08:13:00,
2013-07-14 04:18:00,70.7,70.2,30.22,NNE,22,0.0,3.0,98,0.00,,,0.00,meteohub,2013-07-14 08:18:00,
2013-07-14 04:23:00,70.7,70.2,30.22,WSW,248,0.0,3.0,98,0.00,,,0.00,meteohub,2013-07-14 08:23:00,
2013-07-14 04:28:00,70.7,70.2,30.25,East,90,0.0,3.0,98,0.00,,,0.00,meteohub,2013-07-14 08:28:00,
2013-07-14 04:33:00,70.5,70.0,30.25,ESE,112,0.0,3.0,98,0.00,,,0.00,meteohub,2013-07-14 08:33:00,
2013-07-14 04:38:00,70.5,70.0,30.25,SSE,158,0.0,3.0,98,0.00,,,0.00,meteohub,2013-07-14 08:38:00,
2013-07-14 04:43:00,70.5,70.0,30.25,ENE,68,0.0,3.0,98,0.00,,,0.00,meteohub,2013-07-14 08:43:00,
2013-07-14 04:48:00,70.5,70.0,30.25,NNE,22,0.0,3.0,98,0.00,,,0.00,meteohub,2013-07-14 08:48:00,
2013-07-14 04:53:00,70.5,70.0,30.25,NNE,22,0.0,3.0,98,0.00,,,0.00,meteohub,2013-07-14 08:53:00,
2013-07-14 04:58:00,70.5,70.0,30.25,NE,45,0.0,2.0,98,0.00,,,0.00,meteohub,2013-07-14 08:58:00,
2013-07-14 05:03:00,70.3,69.8,30.25,NE,45,0.0,2.0,98,0.00,,,0.00,meteohub,2013-07-14 09:03:00,
2013-07-14 05:08:00,70.3,69.8,30.25,NE,45,0.0,0.0,98,0.00,,,0.00,meteohub,2013-07-14 09:08:00,
2013-07-14 05:13:00,70.3,69.8,30.25,NE,45,0.0,0.0,98,0.00,,,0.00,meteohub,2013-07-14 09:13:00,
2013-07-14 05:18:00,70.2,69.6,30.25,NE,45,0.0,0.0,98,0.00,,,0.00,meteohub,2013-07-14 09:18:00,
2013-07-14 05:23:00,70.2,69.6,30.25,NE,45,0.0,0.0,98,0.00,,,0.00,meteohub,2013-07-14 09:23:00,
2013-07-14 05:28:00,70.0,69.4,30.25,NE,45,0.0,0.0,98,0.00,,,0.00,meteohub,2013-07-14 09:28:00,
2013-07-14 05:33:00,70.0,69.4,30.25,NE,45,0.0,0.0,98,0.00,,,0.00,meteohub,2013-07-14 09:33:00,
2013-07-14 05:38:00,70.0,69.4,30.25,NE,45,0.0,0.0,98,0.00,,,0.00,meteohub,2013-07-14 09:38:00,
2013-07-14 05:43:00,70.0,69.4,30.25,NE,45,0.0,0.0,98,0.00,,,0.00,meteohub,2013-07-14 09:43:00,
2013-07-14 05:48:00,70.0,69.4,30.25,NE,45,0.0,0.0,98,0.00,,,0.00,meteohub,2013-07-14 09:48:00,
2013-07-14 05:53:00,69.8,69.3,30.25,NE,45,0.0,0.0,98,0.00,,,0.00,meteohub,2013-07-14 09:53:00,
2013-07-14 05:58:00,70.0,69.4,30.27,NE,45,0.0,0.0,98,0.00,,,0.00,meteohub,2013-07-14 09:58:00,
2013-07-14 06:03:00,70.0,69.4,30.27,NE,45,0.0,0.0,98,0.00,,,0.00,meteohub,2013-07-14 10:03:00,
2013-07-14 06:08:00,70.0,69.4,30.27,NE,45,0.0,0.0,98,0.00,,,0.00,meteohub,2013-07-14 10:08:00,
2013-07-14 06:13:00,69.8,69.3,30.27,NE,45,0.0,0.0,98,0.00,,,0.00,meteohub,2013-07-14 10:13:00,
2013-07-14 06:18:00,69.8,69.3,30.27,NE,45,0.0,0.0,98,0.00,,,0.00,meteohub,2013-07-14 10:18:00,
2013-07-14 06:23:00,70.0,69.4,30.27,NE,45,0.0,0.0,98,0.00,,,0.00,meteohub,2013-07-14 10:23:00,
2013-07-14 06:28:00,70.0,69.4,30.27,NE,45,0.0,0.0,98,0.00,,,0.00,meteohub,2013-07-14 10:28:00,
2013-07-14 06:33:00,70.2,69.6,30.27,NE,45,0.0,0.0,98,0.00,,,0.00,meteohub,2013-07-14 10:33:00,
2013-07-14 06:38:00,70.3,69.8,30.27,NE,45,0.0,0.0,98,0.00,,,0.00,meteohub,2013-07-14 10:38:00,
2013-07-14 06:43:00,70.3,69.8,30.27,NE,45,0.0,0.0,98,0.00,,,0.00,meteohub,2013-07-14 10:43:00,
2013-07-14 06:48:00,70.5,70.0,30.27,NE,45,0.0,0.0,98,0.00,,,0.00,meteohub,2013-07-14 10:48:00,
2013-07-14 06:53:00,70.7,70.2,30.27,NE,45,0.0,0.0,98,0.00,,,0.00,meteohub,2013-07-14 10:53:00,
2013-07-14 06:58:00,70.9,70.3,30.27,NE,45,0.0,0.0,98,0.00,,,0.00,meteohub,2013-07-14 10:58:00,
2013-07-14 07:03:00,71.1,70.5,30.27,NE,45,0.0,0.0,98,0.00,,,0.00,meteohub,2013-07-14 11:03:00,
2013-07-14 07:08:00,71.2,70.7,30.27,NE,45,0.0,2.0,98,0.00,,,0.00,meteohub,2013-07-14 11:08:00,
2013-07-14 07:13:00,71.4,70.9,30.27,NE,45,0.0,2.0,98,0.00,,,0.00,meteohub,2013-07-14 11:13:00,
2013-07-14 07:18:00,71.4,70.9,30.27,NE,45,0.0,2.0,98,0.00,,,0.00,meteohub,2013-07-14 11:18:00,
2013-07-14 07:23:00,71.6,71.1,30.27,NE,45,0.0,2.0,98,0.00,,,0.00,meteohub,2013-07-14 11:23:00,
2013-07-14 07:28:00,71.8,71.2,30.27,NE,45,0.0,2.0,98,0.00,,,0.00,meteohub,2013-07-14 11:28:00,
2013-07-14 07:33:00,72.1,71.6,30.27,NE,45,0.0,2.0,98,0.00,,,0.00,meteohub,2013-07-14 11:33:00,
2013-07-14 07:38:00,72.5,72.0,30.27,NE,45,4.0,4.0,98,0.00,,,0.00,meteohub,2013-07-14 11:38:00,
2013-07-14 07:43:00,72.7,72.1,30.27,NE,45,0.0,4.0,98,0.00,,,0.00,meteohub,2013-07-14 11:43:00,
2013-07-14 07:48:00,72.9,72.3,30.27,NE,45,0.0,4.0,98,0.00,,,0.00,meteohub,2013-07-14 11:48:00,
2013-07-14 07:53:00,73.0,72.5,30.27,NE,45,0.0,4.0,98,0.00,,,0.00,meteohub,2013-07-14 11:53:00,
2013-07-14 07:58:00,73.0,72.5,30.30,NE,45,0.0,0.0,98,0.00,,,0.00,meteohub,2013-07-14 11:58:00,
2013-07-14 08:03:00,73.0,72.5,30.30,WNW,292,0.0,4.0,98,0.00,,,0.00,meteohub,2013-07-14 12:03:00,
2013-07-14 08:08:00,73.2,72.7,30.30,NE,45,0.0,4.0,98,0.00,,,0.00,meteohub,2013-07-14 12:08:00,
2013-07-14 08:13:00,73.8,73.2,30.30,SSW,202,0.0,4.0,98,0.00,,,0.00,meteohub,2013-07-14 12:13:00,
2013-07-14 08:18:00,73.9,73.4,30.30,ESE,112,2.0,4.0,98,0.00,,,0.00,meteohub,2013-07-14 12:18:00,
2013-07-14 08:23:00,73.8,73.2,30.30,ESE,112,2.0,3.0,98,0.00,,,0.00,meteohub,2013-07-14 12:23:00,
2013-07-14 08:28:00,74.1,73.6,30.30,NW,315,0.0,4.0,98,0.00,,,0.00,meteohub,2013-07-14 12:28:00,
2013-07-14 08:33:00,74.5,73.9,30.30,ESE,112,0.0,4.0,98,0.00,,,0.00,meteohub,2013-07-14 12:33:00,
2013-07-14 08:38:00,74.7,74.1,30.30,SSW,202,2.0,4.0,98,0.00,,,0.00,meteohub,2013-07-14 12:38:00,
2013-07-14 08:43:00,74.8,74.3,30.30,South,180,0.0,3.0,98,0.00,,,0.00,meteohub,2013-07-14 12:43:00,
2013-07-14 08:48:00,75.0,74.5,30.30,ESE,112,4.0,5.0,98,0.00,,,0.00,meteohub,2013-07-14 12:48:00,
2013-07-14 08:53:00,75.4,74.8,30.30,NE,45,3.0,5.0,98,0.00,,,0.00,meteohub,2013-07-14 12:53:00,
2013-07-14 08:58:00,75.6,75.0,30.30,NW,315,0.0,5.0,98,0.00,,,0.00,meteohub,2013-07-14 12:58:00,
2013-07-14 09:03:00,75.9,75.4,30.30,East,90,0.0,5.0,98,0.00,,,0.00,meteohub,2013-07-14 13:03:00,
2013-07-14 09:08:00,76.1,75.6,30.30,ESE,112,0.0,5.0,98,0.00,,,0.00,meteohub,2013-07-14 13:08:00,
2013-07-14 09:13:00,76.5,75.9,30.30,East,90,0.0,4.0,98,0.00,,,0.00,meteohub,2013-07-14 13:13:00,
2013-07-14 09:18:00,76.8,76.3,30.30,NNW,338,0.0,4.0,98,0.00,,,0.00,meteohub,2013-07-14 13:18:00,
2013-07-14 09:23:00,77.5,77.0,30.30,North,0,3.0,4.0,98,0.00,,,0.00,meteohub,2013-07-14 13:23:00,
2013-07-14 09:28:00,77.7,77.2,30.30,ENE,68,2.0,4.0,98,0.00,,,0.00,meteohub,2013-07-14 13:28:00,
2013-07-14 09:33:00,77.9,76.6,30.30,SE,135,4.0,5.0,96,0.00,,,0.00,meteohub,2013-07-14 13:33:00,
2013-07-14 09:38:00,78.1,76.3,30.30,ESE,112,4.0,6.0,94,0.00,,,0.00,meteohub,2013-07-14 13:38:00,
2013-07-14 09:43:00,78.1,74.8,30.33,East,90,0.0,6.0,90,0.00,,,0.00,meteohub,2013-07-14 13:43:00,
2013-07-14 09:48:00,78.4,74.7,30.33,SE,135,0.0,6.0,88,0.00,,,0.00,meteohub,2013-07-14 13:48:00,
2013-07-14 09:53:00,78.8,73.9,30.33,ESE,112,3.0,5.0,85,0.00,,,0.00,meteohub,2013-07-14 13:53:00,
2013-07-14 09:58:00,78.8,72.5,30.30,SSE,158,0.0,5.0,81,0.00,,,0.00,meteohub,2013-07-14 13:58:00,
2013-07-14 10:03:00,79.5,72.5,30.30,NNE,22,0.0,5.0,79,0.00,,,0.00,meteohub,2013-07-14 14:03:00,
2013-07-14 10:08:00,79.7,71.1,30.30,ESE,112,4.0,5.0,75,0.00,,,0.00,meteohub,2013-07-14 14:08:00,
2013-07-14 10:13:00,79.9,70.0,30.30,East,90,3.0,4.0,72,0.00,,,0.00,meteohub,2013-07-14 14:13:00,
2013-07-14 10:18:00,80.6,70.3,30.30,NNE,22,5.0,5.0,71,0.00,,,0.00,meteohub,2013-07-14 14:18:00,
2013-07-14 10:23:00,81.1,69.6,30.30,East,90,0.0,5.0,68,0.00,,,0.00,meteohub,2013-07-14 14:23:00,
2013-07-14 10:28:00,81.7,69.6,30.30,SE,135,4.0,6.0,67,0.00,,,0.00,meteohub,2013-07-14 14:28:00,
2013-07-14 10:33:00,82.0,70.0,30.30,WNW,292,0.0,6.0,67,0.00,,,0.00,meteohub,2013-07-14 14:33:00,
2013-07-14 10:38:00,82.2,68.9,30.30,West,270,3.0,5.0,64,0.00,,,0.00,meteohub,2013-07-14 14:38:00,
2013-07-14 10:43:00,82.4,69.4,30.33,SE,135,3.0,8.0,65,0.00,,,0.00,meteohub,2013-07-14 14:43:00,
2013-07-14 10:48:00,82.9,69.4,30.33,NNW,338,4.0,8.0,64,0.00,,,0.00,meteohub,2013-07-14 14:48:00,
2013-07-14 10:53:00,83.5,69.1,30.33,NNE,22,4.0,5.0,62,0.00,,,0.00,meteohub,2013-07-14 14:53:00,
2013-07-14 10:58:00,83.5,67.1,30.33,SSE,158,3.0,6.0,58,0.00,,,0.00,meteohub,2013-07-14 14:58:00,
2013-07-14 11:03:00,83.5,66.6,30.33,ESE,112,3.0,6.0,57,0.00,,,0.00,meteohub,2013-07-14 15:03:00,
2013-07-14 11:08:00,83.1,65.8,30.33,East,90,0.0,6.0,56,0.00,,,0.00,meteohub,2013-07-14 15:08:00,
2013-07-14 11:13:00,83.8,67.5,30.33,ESE,112,4.0,6.0,58,0.00,,,0.00,meteohub,2013-07-14 15:13:00,
2013-07-14 11:18:00,84.4,64.8,30.33,NE,45,3.0,6.0,52,0.00,,,0.00,meteohub,2013-07-14 15:18:00,
2013-07-14 11:23:00,84.6,63.9,30.33,ENE,68,2.0,6.0,50,0.00,,,0.00,meteohub,2013-07-14 15:23:00,
2013-07-14 11:28:00,84.9,64.8,30.30,SE,135,4.0,5.0,51,0.00,,,0.00,meteohub,2013-07-14 15:28:00,
2013-07-14 11:33:00,84.0,63.3,30.30,SSW,202,0.0,5.0,50,0.00,,,0.00,meteohub,2013-07-14 15:33:00,
2013-07-14 11:38:00,84.0,65.1,30.30,SSE,158,0.0,5.0,53,0.00,,,0.00,meteohub,2013-07-14 15:38:00,
2013-07-14 11:43:00,83.7,64.8,30.30,SE,135,3.0,5.0,53,0.00,,,0.00,meteohub,2013-07-14 15:43:00,
2013-07-14 11:48:00,84.2,64.6,30.30,WSW,248,3.0,4.0,52,0.00,,,0.00,meteohub,2013-07-14 15:48:00,
2013-07-14 11:53:00,85.1,66.0,30.30,SE,135,2.0,5.0,53,0.00,,,0.00,meteohub,2013-07-14 15:53:00,
2013-07-14 11:58:00,84.6,64.4,30.30,SE,135,2.0,5.0,51,0.00,,,0.00,meteohub,2013-07-14 15:58:00,
2013-07-14 12:08:00,86.5,66.7,30.30,SE,135,0.0,5.0,52,0.00,,,0.00,meteohub,2013-07-14 16:08:00,
2013-07-14 12:13:00,86.5,65.1,30.30,SE,135,3.0,4.0,49,0.00,,,0.00,meteohub,2013-07-14 16:13:00,
2013-07-14 12:18:00,87.4,64.0,30.30,South,180,0.0,5.0,46,0.00,,,0.00,meteohub,2013-07-14 16:18:00,
2013-07-14 12:23:00,88.2,62.2,30.30,ENE,68,3.0,5.0,42,0.00,,,0.00,meteohub,2013-07-14 16:23:00,
2013-07-14 12:28:00,88.5,62.4,30.30,ESE,112,4.0,5.0,42,0.00,,,0.00,meteohub,2013-07-14 16:28:00,
2013-07-14 12:33:00,87.6,61.7,30.30,ENE,68,0.0,6.0,42,0.00,,,0.00,meteohub,2013-07-14 16:33:00,
2013-07-14 12:38:00,88.0,62.1,30.30,WSW,248,3.0,6.0,42,0.00,,,0.00,meteohub,2013-07-14 16:38:00,
2013-07-14 12:43:00,88.2,61.5,30.30,WSW,248,0.0,6.0,41,0.00,,,0.00,meteohub,2013-07-14 16:43:00,
2013-07-14 12:48:00,89.1,63.0,30.30,SSE,158,0.0,5.0,42,0.00,,,0.00,meteohub,2013-07-14 16:48:00,
2013-07-14 12:53:00,89.2,63.1,30.30,SE,135,0.0,5.0,42,0.00,,,0.00,meteohub,2013-07-14 16:53:00,
2013-07-14 12:58:00,89.4,63.3,30.30,SSE,158,0.0,4.0,42,0.00,,,0.00,meteohub,2013-07-14 16:58:00,
2013-07-14 13:03:00,89.6,62.8,30.30,SE,135,0.0,4.0,41,0.00,,,0.00,meteohub,2013-07-14 17:03:00,
2013-07-14 13:08:00,88.7,61.3,30.30,ENE,68,3.0,5.0,40,0.00,,,0.00,meteohub,2013-07-14 17:08:00,
2013-07-14 13:13:00,89.2,61.0,30.30,SSE,158,4.0,5.0,39,0.00,,,0.00,meteohub,2013-07-14 17:13:00,
2013-07-14 13:18:00,88.5,61.9,30.30,SSE,158,2.0,8.0,41,0.00,,,0.00,meteohub,2013-07-14 17:18:00,
2013-07-14 13:23:00,88.5,61.9,30.30,South,180,2.0,8.0,41,0.00,,,0.00,meteohub,2013-07-14 17:23:00,
2013-07-14 13:28:00,89.4,62.6,30.30,SSE,158,3.0,8.0,41,0.00,,,0.00,meteohub,2013-07-14 17:28:00,
2013-07-14 13:33:00,89.8,60.8,30.30,East,90,4.0,7.0,38,0.00,,,0.00,meteohub,2013-07-14 17:33:00,
2013-07-14 13:38:00,90.7,62.2,30.30,ENE,68,0.0,7.0,39,0.00,,,0.00,meteohub,2013-07-14 17:38:00,
2013-07-14 13:43:00,90.1,61.9,30.30,NNE,22,3.0,6.0,39,0.00,,,0.00,meteohub,2013-07-14 17:43:00,
2013-07-14 13:48:00,90.7,64.4,30.30,NE,45,0.0,5.0,42,0.00,,,0.00,meteohub,2013-07-14 17:48:00,
2013-07-14 13:53:00,90.7,63.0,30.30,ESE,112,2.0,5.0,40,0.00,,,0.00,meteohub,2013-07-14 17:53:00,
2013-07-14 14:03:00,91.0,61.9,30.30,ESE,112,2.0,5.0,38,0.00,,,0.00,meteohub,2013-07-14 18:03:00,
2013-07-14 14:08:00,90.7,60.8,30.30,ESE,112,4.0,5.0,37,0.00,,,0.00,meteohub,2013-07-14 18:08:00,
2013-07-14 14:13:00,90.7,61.5,30.30,NNE,22,0.0,5.0,38,0.00,,,0.00,meteohub,2013-07-14 18:13:00,
2013-07-14 14:18:00,91.2,61.3,30.30,NE,45,4.0,6.0,37,0.00,,,0.00,meteohub,2013-07-14 18:18:00,
2013-07-14 14:23:00,91.2,59.0,30.30,ESE,112,3.0,6.0,34,0.00,,,0.00,meteohub,2013-07-14 18:23:00,
2013-07-14 14:28:00,90.7,60.1,30.30,ESE,112,4.0,7.0,36,0.00,,,0.00,meteohub,2013-07-14 18:28:00,
2013-07-14 14:33:00,90.1,61.2,30.30,SE,135,3.0,7.0,38,0.00,,,0.00,meteohub,2013-07-14 18:33:00,
2013-07-14 14:38:00,90.0,61.0,30.30,ESE,112,2.0,7.0,38,0.00,,,0.00,meteohub,2013-07-14 18:38:00,
2013-07-14 14:43:00,90.5,61.3,30.30,South,180,0.0,6.0,38,0.00,,,0.00,meteohub,2013-07-14 18:43:00,
2013-07-14 14:48:00,91.8,61.7,30.30,ENE,68,4.0,6.0,37,0.00,,,0.00,meteohub,2013-07-14 18:48:00,
2013-07-14 14:53:00,91.8,58.6,30.30,ESE,112,5.0,5.0,33,0.00,,,0.00,meteohub,2013-07-14 18:53:00,
2013-07-14 14:58:00,91.9,62.8,30.27,SE,135,0.0,6.0,38,0.00,,,0.00,meteohub,2013-07-14 18:58:00,
2013-07-14 15:03:00,91.4,62.2,30.27,ENE,68,4.0,6.0,38,0.00,,,0.00,meteohub,2013-07-14 19:03:00,
2013-07-14 15:08:00,91.6,61.7,30.27,SSE,158,0.0,6.0,37,0.00,,,0.00,meteohub,2013-07-14 19:08:00,
2013-07-14 15:13:00,90.5,60.6,30.27,SE,135,3.0,5.0,37,0.00,,,0.00,meteohub,2013-07-14 19:13:00,
2013-07-14 15:18:00,90.9,61.7,30.27,North,0,3.0,6.0,38,0.00,,,0.00,meteohub,2013-07-14 19:18:00,
2013-07-14 15:23:00,90.7,61.5,30.27,SE,135,4.0,7.0,38,0.00,,,0.00,meteohub,2013-07-14 19:23:00,
2013-07-14 15:28:00,91.4,61.5,30.27,ESE,112,0.0,7.0,37,0.00,,,0.00,meteohub,2013-07-14 19:28:00,
2013-07-14 15:38:00,91.8,61.7,30.27,WNW,292,2.0,4.0,37,0.00,,,0.00,meteohub,2013-07-14 19:38:00,
2013-07-14 15:43:00,91.4,59.9,30.27,SE,135,2.0,5.0,35,0.00,,,0.00,meteohub,2013-07-14 19:43:00,
2013-07-14 15:48:00,91.8,58.6,30.27,SE,135,3.0,7.0,33,0.00,,,0.00,meteohub,2013-07-14 19:48:00,
2013-07-14 15:53:00,92.5,62.4,30.27,ESE,112,2.0,7.0,37,0.00,,,0.00,meteohub,2013-07-14 19:53:00,
2013-07-14 15:58:00,92.5,60.1,30.27,SE,135,6.0,7.0,34,0.00,,,0.00,meteohub,2013-07-14 19:58:00,
2013-07-14 16:03:00,92.1,62.1,30.27,ESE,112,0.0,6.0,37,0.00,,,0.00,meteohub,2013-07-14 20:03:00,
2013-07-14 16:08:00,91.9,61.2,30.27,ESE,112,2.0,6.0,36,0.00,,,0.00,meteohub,2013-07-14 20:08:00,
2013-07-14 16:13:00,91.8,59.4,30.27,South,180,3.0,6.0,34,0.00,,,0.00,meteohub,2013-07-14 20:13:00,
2013-07-14 16:18:00,91.6,60.8,30.27,SE,135,4.0,6.0,36,0.00,,,0.00,meteohub,2013-07-14 20:18:00,
2013-07-14 16:23:00,91.4,60.6,30.27,NNE,22,3.0,6.0,36,0.00,,,0.00,meteohub,2013-07-14 20:23:00,
2013-07-14 16:28:00,92.5,61.7,30.27,SE,135,3.0,5.0,36,0.00,,,0.00,meteohub,2013-07-14 20:28:00,
2013-07-14 16:33:00,91.6,61.7,30.27,NE,45,0.0,5.0,37,0.00,,,0.00,meteohub,2013-07-14 20:33:00,
2013-07-14 16:38:00,92.3,60.6,30.27,WNW,292,3.0,5.0,35,0.00,,,0.00,meteohub,2013-07-14 20:38:00,
2013-07-14 16:43:00,91.9,59.5,30.27,SSE,158,2.0,5.0,34,0.00,,,0.00,meteohub,2013-07-14 20:43:00,
2013-07-14 16:48:00,92.3,59.9,30.27,SE,135,0.0,6.0,34,0.00,,,0.00,meteohub,2013-07-14 20:48:00,
2013-07-14 16:53:00,91.8,57.7,30.27,SE,135,4.0,6.0,32,0.00,,,0.00,meteohub,2013-07-14 20:53:00,
2013-07-14 16:58:00,91.6,58.5,30.25,SSW,202,3.0,6.0,33,0.00,,,0.00,meteohub,2013-07-14 20:58:00,
2013-07-14 17:03:00,91.6,58.5,30.25,South,180,4.0,6.0,33,0.00,,,0.00,meteohub,2013-07-14 21:03:00,
2013-07-14 17:08:00,91.8,58.6,30.25,ENE,68,0.0,6.0,33,0.00,,,0.00,meteohub,2013-07-14 21:08:00,
2013-07-14 17:13:00,92.1,59.7,30.27,South,180,0.0,4.0,34,0.00,,,0.00,meteohub,2013-07-14 21:13:00,
2013-07-14 17:18:00,91.6,59.2,30.27,SE,135,3.0,6.0,34,0.00,,,0.00,meteohub,2013-07-14 21:18:00,
2013-07-14 17:23:00,90.9,60.3,30.27,ESE,112,2.0,7.0,36,0.00,,,0.00,meteohub,2013-07-14 21:23:00,
2013-07-14 17:28:00,90.0,61.7,30.27,SSE,158,3.0,7.0,39,0.00,,,0.00,meteohub,2013-07-14 21:28:00,
2013-07-14 17:33:00,89.4,61.2,30.27,SE,135,0.0,5.0,39,0.00,,,0.00,meteohub,2013-07-14 21:33:00,
2013-07-14 17:38:00,89.6,61.3,30.27,SSE,158,3.0,5.0,39,0.00,,,0.00,meteohub,2013-07-14 21:38:00,
2013-07-14 17:43:00,89.4,61.9,30.25,SE,135,2.0,5.0,40,0.00,,,0.00,meteohub,2013-07-14 21:43:00,
2013-07-14 17:48:00,89.2,61.0,30.25,ENE,68,3.0,4.0,39,0.00,,,0.00,meteohub,2013-07-14 21:48:00,
2013-07-14 17:53:00,89.8,60.8,30.25,SE,135,0.0,5.0,38,0.00,,,0.00,meteohub,2013-07-14 21:53:00,
2013-07-14 17:58:00,90.3,62.1,30.25,NE,45,3.0,5.0,39,0.00,,,0.00,meteohub,2013-07-14 21:58:00,
2013-07-14 18:03:00,89.8,62.2,30.25,ESE,112,0.0,5.0,40,0.00,,,0.00,meteohub,2013-07-14 22:03:00,
2013-07-14 18:08:00,89.4,61.9,30.25,NE,45,0.0,5.0,40,0.00,,,0.00,meteohub,2013-07-14 22:08:00,
2013-07-14 18:13:00,88.7,62.6,30.25,ENE,68,0.0,5.0,42,0.00,,,0.00,meteohub,2013-07-14 22:13:00,
2013-07-14 18:18:00,87.4,63.5,30.25,SE,135,3.0,4.0,45,0.00,,,0.00,meteohub,2013-07-14 22:18:00,
2013-07-14 18:23:00,87.3,63.3,30.25,NNE,22,5.0,5.0,45,0.00,,,0.00,meteohub,2013-07-14 22:23:00,
2013-07-14 18:28:00,86.5,63.9,30.25,North,0,0.0,5.0,47,0.00,,,0.00,meteohub,2013-07-14 22:28:00,
2013-07-14 18:33:00,86.4,63.7,30.25,ENE,68,3.0,5.0,47,0.00,,,0.00,meteohub,2013-07-14 22:33:00,
2013-07-14 18:38:00,86.2,65.3,30.25,ENE,68,0.0,5.0,50,0.00,,,0.00,meteohub,2013-07-14 22:38:00,
2013-07-14 18:43:00,86.0,65.1,30.25,NW,315,0.0,4.0,50,0.00,,,0.00,meteohub,2013-07-14 22:43:00,
2013-07-14 18:48:00,85.8,65.7,30.25,SSE,158,3.0,4.0,51,0.00,,,0.00,meteohub,2013-07-14 22:48:00,
2013-07-14 18:53:00,85.3,65.7,30.25,SSE,158,0.0,4.0,52,0.00,,,0.00,meteohub,2013-07-14 22:53:00,
2013-07-14 18:58:00,84.9,65.3,30.27,SSE,158,0.0,4.0,52,0.00,,,0.00,meteohub,2013-07-14 22:58:00,
2013-07-14 19:03:00,85.1,66.0,30.27,SSE,158,0.0,4.0,53,0.00,,,0.00,meteohub,2013-07-14 23:03:00,
2013-07-14 19:08:00,85.1,66.6,30.27,SSE,158,0.0,3.0,54,0.00,,,0.00,meteohub,2013-07-14 23:08:00,
2013-07-14 19:13:00,84.9,66.9,30.27,NE,45,0.0,3.0,55,0.00,,,0.00,meteohub,2013-07-14 23:13:00,
2013-07-14 19:18:00,84.9,67.5,30.27,NE,45,0.0,3.0,56,0.00,,,0.00,meteohub,2013-07-14 23:18:00,
2013-07-14 19:23:00,84.6,67.1,30.27,NE,45,0.0,3.0,56,0.00,,,0.00,meteohub,2013-07-14 23:23:00,
2013-07-14 19:28:00,84.2,67.3,30.27,NE,45,0.0,3.0,57,0.00,,,0.00,meteohub,2013-07-14 23:28:00,
2013-07-14 19:33:00,84.0,68.7,30.27,NE,45,0.0,3.0,60,0.00,,,0.00,meteohub,2013-07-14 23:33:00,
2013-07-14 19:38:00,83.5,67.6,30.27,East,90,0.0,4.0,59,0.00,,,0.00,meteohub,2013-07-14 23:38:00,
2013-07-14 19:43:00,83.1,67.3,30.27,ENE,68,0.0,4.0,59,0.00,,,0.00,meteohub,2013-07-14 23:43:00,
2013-07-14 19:48:00,82.9,68.2,30.27,ESE,112,3.0,4.0,61,0.00,,,0.00,meteohub,2013-07-14 23:48:00,
2013-07-14 19:53:00,82.8,68.0,30.27,ESE,112,0.0,4.0,61,0.00,,,0.00,meteohub,2013-07-14 23:53:00,
2013-07-14 19:58:00,82.4,68.0,30.27,ESE,112,0.0,3.0,62,0.00,,,0.00,meteohub,2013-07-14 23:58:00,
2013-07-14 20:03:00,82.0,68.2,30.27,ESE,112,0.0,3.0,63,0.00,,,0.00,meteohub,2013-07-15 00:03:00,
2013-07-14 20:08:00,81.7,67.8,30.27,ESE,112,0.0,0.0,63,0.00,,,0.00,meteohub,2013-07-15 00:08:00,
2013-07-14 20:13:00,81.5,67.6,30.27,ESE,112,0.0,0.0,63,0.00,,,0.00,meteohub,2013-07-15 00:13:00,
2013-07-14 20:18:00,81.1,67.8,30.27,NE,45,0.0,0.0,64,0.00,,,0.00,meteohub,2013-07-15 00:18:00,
2013-07-14 20:23:00,80.8,68.4,30.27,NE,45,0.0,0.0,66,0.00,,,0.00,meteohub,2013-07-15 00:23:00,
2013-07-14 20:28:00,80.4,68.0,30.27,NE,45,0.0,0.0,66,0.00,,,0.00,meteohub,2013-07-15 00:28:00,
2013-07-14 20:33:00,80.2,68.4,30.27,NE,45,0.0,0.0,67,0.00,,,0.00,meteohub,2013-07-15 00:33:00,
2013-07-14 20:38:00,79.9,68.4,30.27,NE,45,0.0,0.0,68,0.00,,,0.00,meteohub,2013-07-15 00:38:00,
2013-07-14 20:43:00,79.5,68.0,30.27,NE,45,0.0,0.0,68,0.00,,,0.00,meteohub,2013-07-15 00:43:00,
2013-07-14 20:48:00,79.3,68.4,30.27,NE,45,0.0,0.0,69,0.00,,,0.00,meteohub,2013-07-15 00:48:00,
2013-07-14 20:53:00,79.0,69.3,30.27,NE,45,0.0,0.0,72,0.00,,,0.00,meteohub,2013-07-15 00:53:00,
2013-07-14 20:58:00,78.6,69.3,30.27,NE,45,0.0,0.0,73,0.00,,,0.00,meteohub,2013-07-15 00:58:00,
2013-07-14 21:03:00,78.4,69.1,30.27,NE,45,0.0,0.0,73,0.00,,,0.00,meteohub,2013-07-15 01:03:00,
2013-07-14 21:08:00,78.1,69.1,30.27,NE,45,0.0,0.0,74,0.00,,,0.00,meteohub,2013-07-15 01:08:00,
2013-07-14 21:13:00,77.9,68.9,30.27,NE,45,0.0,0.0,74,0.00,,,0.00,meteohub,2013-07-15 01:13:00,
2013-07-14 21:18:00,77.7,69.6,30.27,NE,45,0.0,0.0,76,0.00,,,0.00,meteohub,2013-07-15 01:18:00,
2013-07-14 21:23:00,77.5,70.2,30.27,NE,45,0.0,0.0,78,0.00,,,0.00,meteohub,2013-07-15 01:23:00,
2013-07-14 21:28:00,77.4,70.3,30.30,NE,45,0.0,0.0,79,0.00,,,0.00,meteohub,2013-07-15 01:28:00,
2013-07-14 21:38:00,76.8,70.5,30.30,NE,45,0.0,0.0,81,0.00,,,0.00,meteohub,2013-07-15 01:38:00,
2013-07-14 21:43:00,76.6,70.7,30.30,NE,45,0.0,0.0,82,0.00,,,0.00,meteohub,2013-07-15 01:43:00,
2013-07-14 21:48:00,76.5,70.9,30.30,NE,45,0.0,0.0,83,0.00,,,0.00,meteohub,2013-07-15 01:48:00,
2013-07-14 21:53:00,76.3,71.1,30.30,NE,45,0.0,0.0,84,0.00,,,0.00,meteohub,2013-07-15 01:53:00,
2013-07-14 21:58:00,76.1,70.9,30.30,NE,45,0.0,0.0,84,0.00,,,0.00,meteohub,2013-07-15 01:58:00,
2013-07-14 22:03:00,76.1,71.2,30.30,NE,45,0.0,0.0,85,0.00,,,0.00,meteohub,2013-07-15 02:03:00,
2013-07-14 22:08:00,75.9,71.4,30.30,NE,45,0.0,0.0,86,0.00,,,0.00,meteohub,2013-07-15 02:08:00,
2013-07-14 22:13:00,75.7,71.2,30.30,NE,45,0.0,0.0,86,0.00,,,0.00,meteohub,2013-07-15 02:13:00,
2013-07-14 22:18:00,75.6,71.1,30.30,NE,45,0.0,0.0,86,0.00,,,0.00,meteohub,2013-07-15 02:18:00,
2013-07-14 22:23:00,75.6,71.4,30.30,NE,45,0.0,0.0,87,0.00,,,0.00,meteohub,2013-07-15 02:23:00,
2013-07-14 22:28:00,75.4,71.2,30.30,NE,45,0.0,0.0,87,0.00,,,0.00,meteohub,2013-07-15 02:28:00,
2013-07-14 22:33:00,75.2,70.7,30.30,NE,45,0.0,0.0,86,0.00,,,0.00,meteohub,2013-07-15 02:33:00,
2013-07-14 22:38:00,75.0,70.5,30.30,NE,45,0.0,0.0,86,0.00,,,0.00,meteohub,2013-07-15 02:38:00,
2013-07-14 22:43:00,75.0,70.5,30.30,NE,45,0.0,0.0,86,0.00,,,0.00,meteohub,2013-07-15 02:43:00,
2013-07-14 22:48:00,74.8,70.3,30.30,NE,45,0.0,0.0,86,0.00,,,0.00,meteohub,2013-07-15 02:48:00,
2013-07-14 22:53:00,74.7,70.2,30.30,NE,45,0.0,0.0,86,0.00,,,0.00,meteohub,2013-07-15 02:53:00,
2013-07-14 22:58:00,74.5,70.0,30.30,NE,45,0.0,0.0,86,0.00,,,0.00,meteohub,2013-07-15 02:58:00,
2013-07-14 23:03:00,74.5,69.6,30.30,NE,45,0.0,0.0,85,0.00,,,0.00,meteohub,2013-07-15 03:03:00,
2013-07-14 23:08:00,74.3,69.4,30.30,NE,45,0.0,0.0,85,0.00,,,0.00,meteohub,2013-07-15 03:08:00,
2013-07-14 23:13:00,74.3,69.8,30.30,NE,45,0.0,0.0,86,0.00,,,0.00,meteohub,2013-07-15 03:13:00,
2013-07-14 23:18:00,74.1,69.6,30.30,NE,45,0.0,0.0,86,0.00,,,0.00,meteohub,2013-07-15 03:18:00,
2013-07-14 23:23:00,74.1,70.0,30.30,NE,45,0.0,0.0,87,0.00,,,0.00,meteohub,2013-07-15 03:23:00,
2013-07-14 23:28:00,73.9,69.8,30.30,NE,45,0.0,0.0,87,0.00,,,0.00,meteohub,2013-07-15 03:28:00,
2013-07-14 23:33:00,73.8,69.6,30.30,NE,45,0.0,0.0,87,0.00,,,0.00,meteohub,2013-07-15 03:33:00,
2013-07-14 23:38:00,73.8,70.0,30.30,NE,45,0.0,0.0,88,0.00,,,0.00,meteohub,2013-07-15 03:38:00,
2013-07-14 23:43:00,73.6,69.8,30.30,NE,45,0.0,0.0,88,0.00,,,0.00,meteohub,2013-07-15 03:43:00,
2013-07-14 23:48:00,73.4,69.6,30.30,NE,45,0.0,0.0,88,0.00,,,0.00,meteohub,2013-07-15 03:48:00,
2013-07-14 23:58:00,73.2,70.2,30.30,NE,45,0.0,0.0,90,0.00,,,0.00,meteohub,2013-07-15 03:58:00,